sensor_id;sensor_type;location;lat;lon;timestamp;pressure;altitude;pressure_sealevel;temperature;humidity
47710;BME280;33473;51.640;5.892;2022-08-07T00:12:28;102500;;;18.7;49.0
47710;BME280;33473;51.640;5.892;2022-08-07T00:25:50;102500;;;18.5;50.0
47710;BME280;33473;51.640;5.892;2022-08-07T00:39:11;102500;;;18.4;50.0
47710;BME280;33473;51.640;5.892;2022-08-07T00:52:31;102500;;;18.2;50.0
47710;BME280;33473;51.640;5.892;2022-08-07T01:05:52;102500;;;18.0;50.0
47710;BME280;33473;51.640;5.892;2022-08-07T01:19:12;102500;;;17.9;50.0
47710;BME280;33473;51.640;5.892;2022-08-07T01:32:33;102500;;;17.7;50.0
47710;BME280;33473;51.640;5.892;2022-08-07T01:45:53;102500;;;17.6;51.0
47710;BME280;33473;51.640;5.892;2022-08-07T01:59:13;102500;;;17.4;51.0
47710;BME280;33473;51.640;5.892;2022-08-07T02:12:35;102500;;;17.3;51.0
47710;BME280;33473;51.640;5.892;2022-08-07T02:25:56;102400;;;17.2;51.0
47710;BME280;33473;51.640;5.892;2022-08-07T02:39:16;102500;;;17.1;51.0
47710;BME280;33473;51.640;5.892;2022-08-07T02:52:36;102400;;;17.0;51.0
47710;BME280;33473;51.640;5.892;2022-08-07T03:05:57;102400;;;17.0;52.0
47710;BME280;33473;51.640;5.892;2022-08-07T03:19:17;102400;;;16.9;52.0
47710;BME280;33473;51.640;5.892;2022-08-07T03:32:37;102400;;;16.9;51.0
47710;BME280;33473;51.640;5.892;2022-08-07T03:45:56;102400;;;16.8;52.0
47710;BME280;33473;51.640;5.892;2022-08-07T03:59:18;102400;;;16.7;51.0
47710;BME280;33473;51.640;5.892;2022-08-07T04:12:40;102400;;;16.6;52.0
47710;BME280;33473;51.640;5.892;2022-08-07T04:25:59;102400;;;16.5;52.0
47710;BME280;33473;51.640;5.892;2022-08-07T04:39:20;102500;;;16.5;52.0
47710;BME280;33473;51.640;5.892;2022-08-07T04:52:41;102500;;;16.5;53.0
47710;BME280;33473;51.640;5.892;2022-08-07T05:06:01;102500;;;16.6;53.0
47710;BME280;33473;51.640;5.892;2022-08-07T05:19:21;102500;;;16.8;54.0
47710;BME280;33473;51.640;5.892;2022-08-07T05:32:41;102500;;;17.2;54.0
47710;BME280;33473;51.640;5.892;2022-08-07T05:46:01;102500;;;17.6;55.0
47710;BME280;33473;51.640;5.892;2022-08-07T05:59:23;102500;;;18.1;55.0
47710;BME280;33473;51.640;5.892;2022-08-07T06:12:43;102500;;;18.8;54.0
47710;BME280;33473;51.640;5.892;2022-08-07T06:26:04;102500;;;19.4;53.0
47710;BME280;33473;51.640;5.892;2022-08-07T06:39:25;102500;;;19.9;53.0
47710;BME280;33473;51.640;5.892;2022-08-07T06:52:45;102500;;;20.7;51.0
47710;BME280;33473;51.640;5.892;2022-08-07T07:06:05;102500;;;21.4;50.0
47710;BME280;33473;51.640;5.892;2022-08-07T07:19:27;102500;;;22.3;48.0
47710;BME280;33473;51.640;5.892;2022-08-07T07:32:47;102500;;;23.4;45.0
47710;BME280;33473;51.640;5.892;2022-08-07T07:46:08;102500;;;24.5;43.0
47710;BME280;33473;51.640;5.892;2022-08-07T07:59:29;102500;;;25.4;39.0
47710;BME280;33473;51.640;5.892;2022-08-07T08:12:49;102400;;;25.7;38.0
47710;BME280;33473;51.640;5.892;2022-08-07T08:26:11;102400;;;26.3;35.0
47710;BME280;33473;51.640;5.892;2022-08-07T08:39:30;102500;;;26.8;34.0
47710;BME280;33473;51.640;5.892;2022-08-07T08:52:50;102400;;;27.2;34.0
47710;BME280;33473;51.640;5.892;2022-08-07T09:06:10;102400;;;27.9;31.0
47710;BME280;33473;51.640;5.892;2022-08-07T09:19:30;102400;;;28.1;29.0
47710;BME280;33473;51.640;5.892;2022-08-07T09:32:50;102400;;;28.5;29.0
47710;BME280;33473;51.640;5.892;2022-08-07T09:46:10;102400;;;29.0;30.0
47710;BME280;33473;51.640;5.892;2022-08-07T09:59:30;102400;;;29.0;29.0
47710;BME280;33473;51.640;5.892;2022-08-07T10:12:52;102400;;;29.3;29.0
47710;BME280;33473;51.640;5.892;2022-08-07T10:26:11;102400;;;29.7;28.0
47710;BME280;33473;51.640;5.892;2022-08-07T10:39:31;102400;;;29.7;26.0
47710;BME280;33473;51.640;5.892;2022-08-07T10:52:51;102400;;;30.1;27.0
47710;BME280;33473;51.640;5.892;2022-08-07T11:06:11;102300;;;30.2;26.0
47710;BME280;33473;51.640;5.892;2022-08-07T11:19:33;102300;;;30.7;27.0
47710;BME280;33473;51.640;5.892;2022-08-07T11:32:53;102300;;;30.8;24.0
47710;BME280;33473;51.640;5.892;2022-08-07T11:46:13;102300;;;30.4;25.0
47710;BME280;33473;51.640;5.892;2022-08-07T11:59:34;102300;;;30.9;23.0
47710;BME280;33473;51.640;5.892;2022-08-07T12:12:54;102300;;;31.0;24.0
47710;BME280;33473;51.640;5.892;2022-08-07T12:26:15;102300;;;31.0;25.0
47710;BME280;33473;51.640;5.892;2022-08-07T12:39:35;102300;;;31.1;22.0
47710;BME280;33473;51.640;5.892;2022-08-07T12:52:57;102300;;;31.3;24.0
47710;BME280;33473;51.640;5.892;2022-08-07T13:06:16;102200;;;31.5;22.0
47710;BME280;33473;51.640;5.892;2022-08-07T13:19:36;102200;;;31.7;21.0
47710;BME280;33473;51.640;5.892;2022-08-07T13:32:57;102200;;;31.5;22.0
47710;BME280;33473;51.640;5.892;2022-08-07T13:46:17;102200;;;31.9;21.0
47710;BME280;33473;51.640;5.892;2022-08-07T13:59:37;102200;;;31.9;21.0
47710;BME280;33473;51.640;5.892;2022-08-07T14:12:57;102200;;;31.9;22.0
47710;BME280;33473;51.640;5.892;2022-08-07T14:26:18;102200;;;31.8;23.0
47710;BME280;33473;51.640;5.892;2022-08-07T14:39:40;102200;;;32.1;22.0
47710;BME280;33473;51.640;5.892;2022-08-07T14:53:00;102200;;;32.3;22.0
47710;BME280;33473;51.640;5.892;2022-08-07T15:06:21;102200;;;32.1;22.0
47710;BME280;33473;51.640;5.892;2022-08-07T15:19:41;102200;;;31.9;20.0
47710;BME280;33473;51.640;5.892;2022-08-07T15:33:02;102100;;;32.0;23.0
47710;BME280;33473;51.640;5.892;2022-08-07T15:46:22;102100;;;32.1;21.0
47710;BME280;33473;51.640;5.892;2022-08-07T15:59:42;102100;;;32.1;21.0
47710;BME280;33473;51.640;5.892;2022-08-07T16:13:02;102100;;;31.6;22.0
47710;BME280;33473;51.640;5.892;2022-08-07T16:26:23;102100;;;31.2;24.0
47710;BME280;33473;51.640;5.892;2022-08-07T16:39:43;102100;;;31.3;24.0
47710;BME280;33473;51.640;5.892;2022-08-07T16:53:03;102100;;;31.5;23.0
47710;BME280;33473;51.640;5.892;2022-08-07T17:06:23;102100;;;31.2;24.0
47710;BME280;33473;51.640;5.892;2022-08-07T17:19:43;102100;;;30.6;23.0
47710;BME280;33473;51.640;5.892;2022-08-07T17:33:03;102100;;;30.0;26.0
47710;BME280;33473;51.640;5.892;2022-08-07T17:46:23;102100;;;29.4;26.0
47710;BME280;33473;51.640;5.892;2022-08-07T17:59:43;102100;;;29.0;25.0
47710;BME280;33473;51.640;5.892;2022-08-07T18:13:03;102100;;;28.6;27.0
47710;BME280;33473;51.640;5.892;2022-08-07T18:26:24;102200;;;28.2;27.0
47710;BME280;33473;51.640;5.892;2022-08-07T18:39:44;102200;;;27.7;27.0
47710;BME280;33473;51.640;5.892;2022-08-07T18:53:05;102200;;;27.4;28.0
47710;BME280;33473;51.640;5.892;2022-08-07T19:06:25;102200;;;26.8;31.0
47710;BME280;33473;51.640;5.892;2022-08-07T19:19:45;102200;;;26.2;32.0
47710;BME280;33473;51.640;5.892;2022-08-07T19:33:07;102200;;;25.6;34.0
47710;BME280;33473;51.640;5.892;2022-08-07T19:46:27;102200;;;25.1;34.0
47710;BME280;33473;51.640;5.892;2022-08-07T19:59:49;102200;;;24.7;35.0
47710;BME280;33473;51.640;5.892;2022-08-07T20:13:08;102200;;;24.3;35.0
47710;BME280;33473;51.640;5.892;2022-08-07T20:26:28;102200;;;23.9;36.0
47710;BME280;33473;51.640;5.892;2022-08-07T20:39:48;102300;;;23.7;36.0
47710;BME280;33473;51.640;5.892;2022-08-07T20:53:10;102300;;;23.6;36.0
47710;BME280;33473;51.640;5.892;2022-08-07T21:06:30;102300;;;23.4;38.0
47710;BME280;33473;51.640;5.892;2022-08-07T21:19:52;102300;;;23.1;38.0
47710;BME280;33473;51.640;5.892;2022-08-07T21:33:11;102300;;;22.8;39.0
47710;BME280;33473;51.640;5.892;2022-08-07T21:46:33;102300;;;22.5;40.0
47710;BME280;33473;51.640;5.892;2022-08-07T21:59:53;102300;;;22.2;41.0
47710;BME280;33473;51.640;5.892;2022-08-07T22:13:14;102300;;;22.1;42.0
47710;BME280;33473;51.640;5.892;2022-08-07T22:26:34;102300;;;22.1;42.0
47710;BME280;33473;51.640;5.892;2022-08-07T22:39:55;102300;;;22.0;43.0
47710;BME280;33473;51.640;5.892;2022-08-07T22:53:15;102300;;;21.9;43.0
47710;BME280;33473;51.640;5.892;2022-08-07T23:06:35;102300;;;21.7;44.0
47710;BME280;33473;51.640;5.892;2022-08-07T23:19:55;102300;;;21.6;44.0
47710;BME280;33473;51.640;5.892;2022-08-07T23:33:15;102300;;;21.5;44.0
47710;BME280;33473;51.640;5.892;2022-08-07T23:46:35;102300;;;21.5;44.0
47710;BME280;33473;51.640;5.892;2022-08-07T23:59:55;102300;;;21.5;45.0
